sensor_id;sensor_type;location;lat;lon;timestamp;temperature;humidity
54642;DHT22;40536;53.194;5.728;2023-05-31T00:02:17;11.60;99.90
54642;DHT22;40536;53.194;5.728;2023-05-31T00:04:43;11.60;99.90
54642;DHT22;40536;53.194;5.728;2023-05-31T00:07:09;11.60;99.90
54642;DHT22;40536;53.194;5.728;2023-05-31T00:09:34;11.60;99.90
54642;DHT22;40536;53.194;5.728;2023-05-31T00:12:00;11.60;99.90
54642;DHT22;40536;53.194;5.728;2023-05-31T00:14:26;11.60;99.90
54642;DHT22;40536;53.194;5.728;2023-05-31T00:16:52;11.60;99.90
54642;DHT22;40536;53.194;5.728;2023-05-31T00:19:18;11.60;99.90
54642;DHT22;40536;53.194;5.728;2023-05-31T00:21:44;11.60;99.90
54642;DHT22;40536;53.194;5.728;2023-05-31T00:24:13;11.60;99.90
54642;DHT22;40536;53.194;5.728;2023-05-31T00:26:39;11.70;99.90
54642;DHT22;40536;53.194;5.728;2023-05-31T00:29:05;11.60;99.90
54642;DHT22;40536;53.194;5.728;2023-05-31T00:31:31;11.60;99.90
54642;DHT22;40536;53.194;5.728;2023-05-31T00:33:57;11.60;99.90
54642;DHT22;40536;53.194;5.728;2023-05-31T00:36:23;11.60;99.90
54642;DHT22;40536;53.194;5.728;2023-05-31T00:38:49;11.60;99.90
54642;DHT22;40536;53.194;5.728;2023-05-31T00:41:15;11.60;99.90
54642;DHT22;40536;53.194;5.728;2023-05-31T00:43:41;11.60;99.90
54642;DHT22;40536;53.194;5.728;2023-05-31T00:46:11;11.50;99.90
54642;DHT22;40536;53.194;5.728;2023-05-31T00:48:39;11.50;99.90
54642;DHT22;40536;53.194;5.728;2023-05-31T00:51:07;11.40;99.90
54642;DHT22;40536;53.194;5.728;2023-05-31T00:53:33;11.30;99.90
54642;DHT22;40536;53.194;5.728;2023-05-31T00:56:00;11.30;99.90
54642;DHT22;40536;53.194;5.728;2023-05-31T00:58:26;11.20;99.90
54642;DHT22;40536;53.194;5.728;2023-05-31T01:00:54;11.10;99.90
54642;DHT22;40536;53.194;5.728;2023-05-31T01:03:20;11.00;99.90
54642;DHT22;40536;53.194;5.728;2023-05-31T01:05:47;10.90;99.90
54642;DHT22;40536;53.194;5.728;2023-05-31T01:08:13;10.90;99.90
54642;DHT22;40536;53.194;5.728;2023-05-31T01:10:40;10.80;99.90
54642;DHT22;40536;53.194;5.728;2023-05-31T01:16:10;10.70;99.90
54642;DHT22;40536;53.194;5.728;2023-05-31T01:18:50;10.60;99.90
54642;DHT22;40536;53.194;5.728;2023-05-31T01:21:21;10.50;99.90
54642;DHT22;40536;53.194;5.728;2023-05-31T01:26:42;10.40;99.90
54642;DHT22;40536;53.194;5.728;2023-05-31T01:29:18;10.30;99.90
54642;DHT22;40536;53.194;5.728;2023-05-31T01:31:45;10.30;99.90
54642;DHT22;40536;53.194;5.728;2023-05-31T01:34:11;10.20;99.90
54642;DHT22;40536;53.194;5.728;2023-05-31T01:36:38;10.20;99.90
54642;DHT22;40536;53.194;5.728;2023-05-31T01:39:04;10.10;99.90
54642;DHT22;40536;53.194;5.728;2023-05-31T01:41:39;10.10;99.90
54642;DHT22;40536;53.194;5.728;2023-05-31T01:44:06;10.00;99.90
54642;DHT22;40536;53.194;5.728;2023-05-31T01:46:33;10.00;99.90
54642;DHT22;40536;53.194;5.728;2023-05-31T01:49:01;10.00;99.90
54642;DHT22;40536;53.194;5.728;2023-05-31T01:51:28;9.90;99.90
54642;DHT22;40536;53.194;5.728;2023-05-31T01:53:56;9.90;99.90
54642;DHT22;40536;53.194;5.728;2023-05-31T01:56:23;10.10;99.90
54642;DHT22;40536;53.194;5.728;2023-05-31T01:58:50;9.90;99.90
54642;DHT22;40536;53.194;5.728;2023-05-31T02:01:18;9.90;99.90
54642;DHT22;40536;53.194;5.728;2023-05-31T02:03:44;9.90;99.90
54642;DHT22;40536;53.194;5.728;2023-05-31T02:06:11;10.00;99.90
54642;DHT22;40536;53.194;5.728;2023-05-31T02:08:39;9.90;99.90
54642;DHT22;40536;53.194;5.728;2023-05-31T02:11:06;9.90;99.90
54642;DHT22;40536;53.194;5.728;2023-05-31T02:13:32;9.80;99.90
54642;DHT22;40536;53.194;5.728;2023-05-31T02:15:58;9.80;99.90
54642;DHT22;40536;53.194;5.728;2023-05-31T02:18:24;9.70;99.90
54642;DHT22;40536;53.194;5.728;2023-05-31T02:20:53;9.60;99.90
54642;DHT22;40536;53.194;5.728;2023-05-31T02:23:20;9.60;99.90
54642;DHT22;40536;53.194;5.728;2023-05-31T02:25:47;9.60;99.90
54642;DHT22;40536;53.194;5.728;2023-05-31T02:28:13;9.50;99.90
54642;DHT22;40536;53.194;5.728;2023-05-31T02:30:39;9.50;99.90
54642;DHT22;40536;53.194;5.728;2023-05-31T02:33:06;9.40;99.90
54642;DHT22;40536;53.194;5.728;2023-05-31T02:35:32;9.80;99.90
54642;DHT22;40536;53.194;5.728;2023-05-31T02:37:58;9.40;99.90
54642;DHT22;40536;53.194;5.728;2023-05-31T02:40:24;9.40;99.90
54642;DHT22;40536;53.194;5.728;2023-05-31T02:42:50;9.50;99.90
54642;DHT22;40536;53.194;5.728;2023-05-31T02:45:16;9.40;99.90
54642;DHT22;40536;53.194;5.728;2023-05-31T02:47:41;9.30;99.90
54642;DHT22;40536;53.194;5.728;2023-05-31T02:50:08;9.30;99.90
54642;DHT22;40536;53.194;5.728;2023-05-31T02:52:38;9.30;99.90
54642;DHT22;40536;53.194;5.728;2023-05-31T02:55:04;9.30;99.90
54642;DHT22;40536;53.194;5.728;2023-05-31T02:57:30;9.30;99.90
54642;DHT22;40536;53.194;5.728;2023-05-31T02:59:59;9.80;99.90
54642;DHT22;40536;53.194;5.728;2023-05-31T03:02:25;9.30;99.90
54642;DHT22;40536;53.194;5.728;2023-05-31T03:04:51;9.40;99.90
54642;DHT22;40536;53.194;5.728;2023-05-31T03:07:18;9.40;99.90
54642;DHT22;40536;53.194;5.728;2023-05-31T03:09:44;9.30;99.90
54642;DHT22;40536;53.194;5.728;2023-05-31T03:12:10;9.40;99.90
54642;DHT22;40536;53.194;5.728;2023-05-31T03:14:35;9.30;99.90
54642;DHT22;40536;53.194;5.728;2023-05-31T03:17:01;9.30;99.90
54642;DHT22;40536;53.194;5.728;2023-05-31T03:19:27;9.30;99.90
54642;DHT22;40536;53.194;5.728;2023-05-31T03:21:53;9.20;99.90
54642;DHT22;40536;53.194;5.728;2023-05-31T03:24:19;9.20;99.90
54642;DHT22;40536;53.194;5.728;2023-05-31T03:26:44;9.10;99.90
54642;DHT22;40536;53.194;5.728;2023-05-31T03:29:10;9.10;99.90
54642;DHT22;40536;53.194;5.728;2023-05-31T03:31:36;9.10;99.90
54642;DHT22;40536;53.194;5.728;2023-05-31T03:34:02;9.10;99.90
54642;DHT22;40536;53.194;5.728;2023-05-31T03:36:27;9.10;99.90
54642;DHT22;40536;53.194;5.728;2023-05-31T03:38:53;9.10;99.90
54642;DHT22;40536;53.194;5.728;2023-05-31T03:41:19;9.10;99.90
54642;DHT22;40536;53.194;5.728;2023-05-31T03:43:44;9.20;99.90
54642;DHT22;40536;53.194;5.728;2023-05-31T03:46:10;9.20;99.90
54642;DHT22;40536;53.194;5.728;2023-05-31T03:48:36;9.30;99.90
54642;DHT22;40536;53.194;5.728;2023-05-31T03:51:01;9.20;99.90
54642;DHT22;40536;53.194;5.728;2023-05-31T03:53:27;9.20;99.90
54642;DHT22;40536;53.194;5.728;2023-05-31T03:55:53;9.60;99.90
54642;DHT22;40536;53.194;5.728;2023-05-31T03:58:19;9.80;99.90
54642;DHT22;40536;53.194;5.728;2023-05-31T04:00:45;9.30;99.90
54642;DHT22;40536;53.194;5.728;2023-05-31T04:03:12;9.40;99.90
54642;DHT22;40536;53.194;5.728;2023-05-31T04:05:40;9.40;99.90
54642;DHT22;40536;53.194;5.728;2023-05-31T04:08:08;9.50;99.90
54642;DHT22;40536;53.194;5.728;2023-05-31T04:10:37;9.40;99.90
54642;DHT22;40536;53.194;5.728;2023-05-31T04:13:02;9.50;99.90
54642;DHT22;40536;53.194;5.728;2023-05-31T04:15:31;9.50;99.90
54642;DHT22;40536;53.194;5.728;2023-05-31T04:17:56;9.50;99.90
54642;DHT22;40536;53.194;5.728;2023-05-31T04:20:22;9.50;99.90
54642;DHT22;40536;53.194;5.728;2023-05-31T04:22:48;9.70;99.90
54642;DHT22;40536;53.194;5.728;2023-05-31T04:25:14;9.70;99.90
54642;DHT22;40536;53.194;5.728;2023-05-31T04:27:42;9.80;99.90
54642;DHT22;40536;53.194;5.728;2023-05-31T04:30:08;10.00;99.90
54642;DHT22;40536;53.194;5.728;2023-05-31T04:32:35;10.10;99.90
54642;DHT22;40536;53.194;5.728;2023-05-31T04:35:01;10.20;99.90
54642;DHT22;40536;53.194;5.728;2023-05-31T04:37:30;10.40;99.90
54642;DHT22;40536;53.194;5.728;2023-05-31T04:39:56;10.50;99.90
54642;DHT22;40536;53.194;5.728;2023-05-31T04:42:23;10.60;99.90
54642;DHT22;40536;53.194;5.728;2023-05-31T04:44:53;10.80;99.90
54642;DHT22;40536;53.194;5.728;2023-05-31T04:47:30;11.00;99.90
54642;DHT22;40536;53.194;5.728;2023-05-31T04:49:56;11.10;99.90
54642;DHT22;40536;53.194;5.728;2023-05-31T04:52:29;11.30;99.90
54642;DHT22;40536;53.194;5.728;2023-05-31T04:54:57;11.60;99.90
54642;DHT22;40536;53.194;5.728;2023-05-31T04:57:23;11.70;99.90
54642;DHT22;40536;53.194;5.728;2023-05-31T04:59:49;11.90;99.90
54642;DHT22;40536;53.194;5.728;2023-05-31T05:02:16;12.10;99.90
54642;DHT22;40536;53.194;5.728;2023-05-31T05:04:42;12.30;99.90
54642;DHT22;40536;53.194;5.728;2023-05-31T05:07:08;12.50;99.90
54642;DHT22;40536;53.194;5.728;2023-05-31T05:09:34;12.80;99.90
54642;DHT22;40536;53.194;5.728;2023-05-31T05:11:59;13.00;99.90
54642;DHT22;40536;53.194;5.728;2023-05-31T05:14:25;13.20;99.90
54642;DHT22;40536;53.194;5.728;2023-05-31T05:16:51;13.40;99.90
54642;DHT22;40536;53.194;5.728;2023-05-31T05:19:17;13.60;99.90
54642;DHT22;40536;53.194;5.728;2023-05-31T05:21:42;13.80;99.90
54642;DHT22;40536;53.194;5.728;2023-05-31T05:24:08;14.00;99.90
54642;DHT22;40536;53.194;5.728;2023-05-31T05:26:34;14.30;99.90
54642;DHT22;40536;53.194;5.728;2023-05-31T05:28:59;14.50;99.90
54642;DHT22;40536;53.194;5.728;2023-05-31T05:31:25;14.70;99.90
54642;DHT22;40536;53.194;5.728;2023-05-31T05:33:51;14.90;99.90
54642;DHT22;40536;53.194;5.728;2023-05-31T05:36:17;15.00;99.90
54642;DHT22;40536;53.194;5.728;2023-05-31T05:38:42;15.20;99.90
54642;DHT22;40536;53.194;5.728;2023-05-31T05:41:08;15.30;99.90
54642;DHT22;40536;53.194;5.728;2023-05-31T05:43:38;15.40;99.90
54642;DHT22;40536;53.194;5.728;2023-05-31T05:46:04;15.60;99.90
54642;DHT22;40536;53.194;5.728;2023-05-31T05:48:30;15.70;99.90
54642;DHT22;40536;53.194;5.728;2023-05-31T05:50:55;15.90;99.90
54642;DHT22;40536;53.194;5.728;2023-05-31T05:53:21;16.00;99.90
54642;DHT22;40536;53.194;5.728;2023-05-31T05:55:51;16.10;99.90
54642;DHT22;40536;53.194;5.728;2023-05-31T05:58:17;16.10;99.90
54642;DHT22;40536;53.194;5.728;2023-05-31T06:00:44;16.30;99.90
54642;DHT22;40536;53.194;5.728;2023-05-31T06:03:16;16.50;99.90
54642;DHT22;40536;53.194;5.728;2023-05-31T06:05:42;16.70;99.90
54642;DHT22;40536;53.194;5.728;2023-05-31T06:08:11;16.90;99.90
54642;DHT22;40536;53.194;5.728;2023-05-31T06:10:38;17.20;99.90
54642;DHT22;40536;53.194;5.728;2023-05-31T06:13:06;17.40;99.90
54642;DHT22;40536;53.194;5.728;2023-05-31T06:15:33;17.50;99.90
54642;DHT22;40536;53.194;5.728;2023-05-31T06:17:58;17.60;99.90
54642;DHT22;40536;53.194;5.728;2023-05-31T06:20:24;17.90;99.90
54642;DHT22;40536;53.194;5.728;2023-05-31T06:22:50;18.10;99.90
54642;DHT22;40536;53.194;5.728;2023-05-31T06:25:17;18.40;99.90
54642;DHT22;40536;53.194;5.728;2023-05-31T06:27:43;18.50;99.90
54642;DHT22;40536;53.194;5.728;2023-05-31T06:30:14;18.60;99.90
54642;DHT22;40536;53.194;5.728;2023-05-31T06:32:40;18.70;99.90
54642;DHT22;40536;53.194;5.728;2023-05-31T06:35:06;19.00;99.90
54642;DHT22;40536;53.194;5.728;2023-05-31T06:37:32;19.10;99.90
54642;DHT22;40536;53.194;5.728;2023-05-31T06:39:58;19.20;99.90
54642;DHT22;40536;53.194;5.728;2023-05-31T06:42:23;19.30;99.90
54642;DHT22;40536;53.194;5.728;2023-05-31T06:44:49;19.70;99.90
54642;DHT22;40536;53.194;5.728;2023-05-31T06:47:16;19.80;99.90
54642;DHT22;40536;53.194;5.728;2023-05-31T06:49:41;20.20;99.90
54642;DHT22;40536;53.194;5.728;2023-05-31T06:52:08;20.30;99.90
54642;DHT22;40536;53.194;5.728;2023-05-31T06:54:35;20.30;99.90
54642;DHT22;40536;53.194;5.728;2023-05-31T06:57:02;20.40;99.90
54642;DHT22;40536;53.194;5.728;2023-05-31T06:59:28;20.60;99.90
54642;DHT22;40536;53.194;5.728;2023-05-31T07:01:54;20.70;99.90
54642;DHT22;40536;53.194;5.728;2023-05-31T07:04:20;20.80;99.90
54642;DHT22;40536;53.194;5.728;2023-05-31T07:06:47;21.10;99.90
54642;DHT22;40536;53.194;5.728;2023-05-31T07:09:13;21.10;99.90
54642;DHT22;40536;53.194;5.728;2023-05-31T07:11:39;20.60;99.90
54642;DHT22;40536;53.194;5.728;2023-05-31T07:14:05;20.10;99.90
54642;DHT22;40536;53.194;5.728;2023-05-31T07:16:31;20.00;99.90
54642;DHT22;40536;53.194;5.728;2023-05-31T07:18:56;20.00;99.90
54642;DHT22;40536;53.194;5.728;2023-05-31T07:21:22;20.50;99.90
54642;DHT22;40536;53.194;5.728;2023-05-31T07:23:48;21.00;99.90
54642;DHT22;40536;53.194;5.728;2023-05-31T07:26:14;21.20;99.90
54642;DHT22;40536;53.194;5.728;2023-05-31T07:28:45;20.70;99.90
54642;DHT22;40536;53.194;5.728;2023-05-31T07:31:12;20.50;99.90
54642;DHT22;40536;53.194;5.728;2023-05-31T07:33:38;20.50;99.90
54642;DHT22;40536;53.194;5.728;2023-05-31T07:36:03;20.60;99.90
54642;DHT22;40536;53.194;5.728;2023-05-31T07:38:29;20.40;99.90
54642;DHT22;40536;53.194;5.728;2023-05-31T07:40:56;20.50;99.90
54642;DHT22;40536;53.194;5.728;2023-05-31T07:43:25;20.90;99.90
54642;DHT22;40536;53.194;5.728;2023-05-31T07:45:52;21.20;99.90
54642;DHT22;40536;53.194;5.728;2023-05-31T07:48:20;21.50;99.90
54642;DHT22;40536;53.194;5.728;2023-05-31T07:50:46;21.80;99.90
54642;DHT22;40536;53.194;5.728;2023-05-31T07:53:12;22.10;99.90
54642;DHT22;40536;53.194;5.728;2023-05-31T07:55:38;22.40;99.90
54642;DHT22;40536;53.194;5.728;2023-05-31T07:58:04;22.50;99.90
54642;DHT22;40536;53.194;5.728;2023-05-31T08:00:30;22.20;99.90
54642;DHT22;40536;53.194;5.728;2023-05-31T08:02:55;22.10;99.90
54642;DHT22;40536;53.194;5.728;2023-05-31T08:05:21;22.20;99.90
54642;DHT22;40536;53.194;5.728;2023-05-31T08:07:49;21.90;99.90
54642;DHT22;40536;53.194;5.728;2023-05-31T08:10:16;21.80;99.90
54642;DHT22;40536;53.194;5.728;2023-05-31T08:12:42;21.60;99.90
54642;DHT22;40536;53.194;5.728;2023-05-31T08:15:08;21.30;99.90
54642;DHT22;40536;53.194;5.728;2023-05-31T08:17:34;21.30;99.90
54642;DHT22;40536;53.194;5.728;2023-05-31T08:20:00;21.10;99.90
54642;DHT22;40536;53.194;5.728;2023-05-31T08:22:26;21.20;99.90
54642;DHT22;40536;53.194;5.728;2023-05-31T08:24:51;21.70;99.90
54642;DHT22;40536;53.194;5.728;2023-05-31T08:27:17;22.10;99.90
54642;DHT22;40536;53.194;5.728;2023-05-31T08:29:43;21.70;99.90
54642;DHT22;40536;53.194;5.728;2023-05-31T08:32:09;21.40;99.90
54642;DHT22;40536;53.194;5.728;2023-05-31T08:34:34;21.70;99.90
54642;DHT22;40536;53.194;5.728;2023-05-31T08:37:01;22.20;99.90
54642;DHT22;40536;53.194;5.728;2023-05-31T08:39:27;22.50;99.90
54642;DHT22;40536;53.194;5.728;2023-05-31T08:42:00;22.30;99.90
54642;DHT22;40536;53.194;5.728;2023-05-31T08:44:30;22.20;99.90
54642;DHT22;40536;53.194;5.728;2023-05-31T08:47:08;21.80;99.90
54642;DHT22;40536;53.194;5.728;2023-05-31T08:49:38;21.50;99.90
54642;DHT22;40536;53.194;5.728;2023-05-31T08:52:05;21.50;99.90
54642;DHT22;40536;53.194;5.728;2023-05-31T08:54:31;21.50;99.90
54642;DHT22;40536;53.194;5.728;2023-05-31T08:56:59;21.10;99.90
54642;DHT22;40536;53.194;5.728;2023-05-31T08:59:25;21.10;99.90
54642;DHT22;40536;53.194;5.728;2023-05-31T09:01:51;21.30;99.90
54642;DHT22;40536;53.194;5.728;2023-05-31T09:04:18;21.20;99.90
54642;DHT22;40536;53.194;5.728;2023-05-31T09:06:45;20.80;99.90
54642;DHT22;40536;53.194;5.728;2023-05-31T09:09:12;20.20;99.90
54642;DHT22;40536;53.194;5.728;2023-05-31T09:11:37;20.10;99.90
54642;DHT22;40536;53.194;5.728;2023-05-31T09:14:05;20.30;99.90
54642;DHT22;40536;53.194;5.728;2023-05-31T09:16:31;20.50;99.90
54642;DHT22;40536;53.194;5.728;2023-05-31T09:19:05;20.50;99.90
54642;DHT22;40536;53.194;5.728;2023-05-31T09:21:41;20.60;99.90
54642;DHT22;40536;53.194;5.728;2023-05-31T09:24:08;20.70;99.90
54642;DHT22;40536;53.194;5.728;2023-05-31T09:26:40;20.60;99.90
54642;DHT22;40536;53.194;5.728;2023-05-31T09:29:10;20.60;99.90
54642;DHT22;40536;53.194;5.728;2023-05-31T09:31:36;21.30;99.90
54642;DHT22;40536;53.194;5.728;2023-05-31T09:34:02;22.10;99.90
54642;DHT22;40536;53.194;5.728;2023-05-31T09:36:31;22.10;99.90
54642;DHT22;40536;53.194;5.728;2023-05-31T09:39:04;22.10;99.90
54642;DHT22;40536;53.194;5.728;2023-05-31T09:41:31;21.40;99.90
54642;DHT22;40536;53.194;5.728;2023-05-31T09:43:56;20.60;99.90
54642;DHT22;40536;53.194;5.728;2023-05-31T09:46:25;20.40;99.90
54642;DHT22;40536;53.194;5.728;2023-05-31T09:49:02;21.30;99.90
54642;DHT22;40536;53.194;5.728;2023-05-31T09:51:30;21.40;99.90
54642;DHT22;40536;53.194;5.728;2023-05-31T09:54:00;21.30;99.90
54642;DHT22;40536;53.194;5.728;2023-05-31T09:56:28;21.20;99.90
54642;DHT22;40536;53.194;5.728;2023-05-31T09:58:56;21.20;99.90
54642;DHT22;40536;53.194;5.728;2023-05-31T10:01:22;21.10;99.90
54642;DHT22;40536;53.194;5.728;2023-05-31T10:03:51;20.70;99.90
54642;DHT22;40536;53.194;5.728;2023-05-31T10:06:18;20.70;99.90
54642;DHT22;40536;53.194;5.728;2023-05-31T10:08:45;20.50;99.90
54642;DHT22;40536;53.194;5.728;2023-05-31T10:11:18;20.40;99.90
54642;DHT22;40536;53.194;5.728;2023-05-31T10:13:46;20.60;99.90
54642;DHT22;40536;53.194;5.728;2023-05-31T10:16:15;20.90;99.90
54642;DHT22;40536;53.194;5.728;2023-05-31T10:18:44;21.40;99.90
54642;DHT22;40536;53.194;5.728;2023-05-31T10:21:20;22.40;99.90
54642;DHT22;40536;53.194;5.728;2023-05-31T10:24:04;22.90;99.90
54642;DHT22;40536;53.194;5.728;2023-05-31T10:26:46;22.70;99.90
54642;DHT22;40536;53.194;5.728;2023-05-31T10:29:17;22.50;99.90
54642;DHT22;40536;53.194;5.728;2023-05-31T10:31:50;22.20;99.90
54642;DHT22;40536;53.194;5.728;2023-05-31T10:34:25;22.70;99.90
54642;DHT22;40536;53.194;5.728;2023-05-31T10:36:52;23.40;99.90
54642;DHT22;40536;53.194;5.728;2023-05-31T10:45:22;22.90;99.90
54642;DHT22;40536;53.194;5.728;2023-05-31T10:47:26;22.40;99.90
54642;DHT22;40536;53.194;5.728;2023-05-31T10:49:55;22.20;99.90
54642;DHT22;40536;53.194;5.728;2023-05-31T10:52:22;22.30;99.90
54642;DHT22;40536;53.194;5.728;2023-05-31T10:54:48;22.30;99.90
54642;DHT22;40536;53.194;5.728;2023-05-31T10:57:15;22.00;99.90
54642;DHT22;40536;53.194;5.728;2023-05-31T10:59:42;22.20;99.90
54642;DHT22;40536;53.194;5.728;2023-05-31T11:02:10;23.00;99.90
54642;DHT22;40536;53.194;5.728;2023-05-31T11:04:36;23.20;99.90
54642;DHT22;40536;53.194;5.728;2023-05-31T11:07:18;23.60;99.90
54642;DHT22;40536;53.194;5.728;2023-05-31T11:09:57;23.40;99.90
54642;DHT22;40536;53.194;5.728;2023-05-31T11:12:35;23.00;99.90
54642;DHT22;40536;53.194;5.728;2023-05-31T11:15:03;23.10;99.90
54642;DHT22;40536;53.194;5.728;2023-05-31T11:20:16;23.90;99.90
54642;DHT22;40536;53.194;5.728;2023-05-31T11:22:43;24.30;99.90
54642;DHT22;40536;53.194;5.728;2023-05-31T11:25:18;24.60;99.90
54642;DHT22;40536;53.194;5.728;2023-05-31T11:27:46;24.70;99.90
54642;DHT22;40536;53.194;5.728;2023-05-31T11:30:18;24.60;99.90
54642;DHT22;40536;53.194;5.728;2023-05-31T11:35:16;25.00;99.90
54642;DHT22;40536;53.194;5.728;2023-05-31T11:37:43;25.10;99.90
54642;DHT22;40536;53.194;5.728;2023-05-31T11:40:11;24.40;99.90
54642;DHT22;40536;53.194;5.728;2023-05-31T11:42:39;24.30;99.90
54642;DHT22;40536;53.194;5.728;2023-05-31T11:45:08;24.30;99.90
54642;DHT22;40536;53.194;5.728;2023-05-31T11:48:03;24.40;99.90
54642;DHT22;40536;53.194;5.728;2023-05-31T11:50:31;24.20;99.90
54642;DHT22;40536;53.194;5.728;2023-05-31T11:53:04;23.90;99.90
54642;DHT22;40536;53.194;5.728;2023-05-31T11:55:32;23.40;99.90
54642;DHT22;40536;53.194;5.728;2023-05-31T11:58:01;23.20;99.90
54642;DHT22;40536;53.194;5.728;2023-05-31T12:00:27;23.20;99.90
54642;DHT22;40536;53.194;5.728;2023-05-31T12:02:57;23.30;99.90
54642;DHT22;40536;53.194;5.728;2023-05-31T12:05:23;23.10;99.90
54642;DHT22;40536;53.194;5.728;2023-05-31T12:07:55;23.10;99.90
54642;DHT22;40536;53.194;5.728;2023-05-31T12:10:30;23.20;99.90
54642;DHT22;40536;53.194;5.728;2023-05-31T12:12:58;23.20;99.90
54642;DHT22;40536;53.194;5.728;2023-05-31T12:15:24;23.40;99.90
54642;DHT22;40536;53.194;5.728;2023-05-31T12:17:51;23.30;99.90
54642;DHT22;40536;53.194;5.728;2023-05-31T12:20:17;23.30;99.90
54642;DHT22;40536;53.194;5.728;2023-05-31T12:22:42;23.30;99.90
54642;DHT22;40536;53.194;5.728;2023-05-31T12:25:08;23.10;99.90
54642;DHT22;40536;53.194;5.728;2023-05-31T12:27:35;23.30;99.90
54642;DHT22;40536;53.194;5.728;2023-05-31T12:30:02;22.90;99.90
54642;DHT22;40536;53.194;5.728;2023-05-31T12:32:27;22.80;99.90
54642;DHT22;40536;53.194;5.728;2023-05-31T12:35:08;22.30;99.90
54642;DHT22;40536;53.194;5.728;2023-05-31T12:37:38;22.00;99.90
54642;DHT22;40536;53.194;5.728;2023-05-31T12:42:37;22.10;99.90
54642;DHT22;40536;53.194;5.728;2023-05-31T12:45:05;22.00;99.90
54642;DHT22;40536;53.194;5.728;2023-05-31T12:47:33;22.00;99.90
54642;DHT22;40536;53.194;5.728;2023-05-31T12:50:03;21.70;99.90
54642;DHT22;40536;53.194;5.728;2023-05-31T12:52:36;21.70;99.90
54642;DHT22;40536;53.194;5.728;2023-05-31T12:55:05;21.80;99.90
54642;DHT22;40536;53.194;5.728;2023-05-31T12:57:31;21.60;99.90
54642;DHT22;40536;53.194;5.728;2023-05-31T13:00:02;21.60;99.90
54642;DHT22;40536;53.194;5.728;2023-05-31T13:02:31;21.50;99.90
54642;DHT22;40536;53.194;5.728;2023-05-31T13:04:56;21.40;99.90
54642;DHT22;40536;53.194;5.728;2023-05-31T13:07:22;21.60;99.90
54642;DHT22;40536;53.194;5.728;2023-05-31T13:09:48;21.60;99.90
54642;DHT22;40536;53.194;5.728;2023-05-31T13:12:14;21.40;99.90
54642;DHT22;40536;53.194;5.728;2023-05-31T13:14:39;21.30;99.90
54642;DHT22;40536;53.194;5.728;2023-05-31T13:17:05;21.10;99.90
54642;DHT22;40536;53.194;5.728;2023-05-31T13:19:31;21.00;99.90
54642;DHT22;40536;53.194;5.728;2023-05-31T13:21:58;21.20;99.90
54642;DHT22;40536;53.194;5.728;2023-05-31T13:24:23;21.00;99.90
54642;DHT22;40536;53.194;5.728;2023-05-31T13:26:49;20.80;99.90
54642;DHT22;40536;53.194;5.728;2023-05-31T13:29:15;20.60;99.90
54642;DHT22;40536;53.194;5.728;2023-05-31T13:31:42;20.60;99.90
54642;DHT22;40536;53.194;5.728;2023-05-31T13:34:08;20.60;99.90
54642;DHT22;40536;53.194;5.728;2023-05-31T13:36:33;20.60;99.90
54642;DHT22;40536;53.194;5.728;2023-05-31T13:38:59;20.50;99.90
54642;DHT22;40536;53.194;5.728;2023-05-31T13:41:25;20.50;99.90
54642;DHT22;40536;53.194;5.728;2023-05-31T13:43:51;20.50;99.90
54642;DHT22;40536;53.194;5.728;2023-05-31T13:46:16;20.30;99.90
54642;DHT22;40536;53.194;5.728;2023-05-31T13:48:43;20.30;99.90
54642;DHT22;40536;53.194;5.728;2023-05-31T13:51:09;20.30;99.90
54642;DHT22;40536;53.194;5.728;2023-05-31T13:53:37;20.20;99.90
54642;DHT22;40536;53.194;5.728;2023-05-31T13:56:03;20.10;99.90
54642;DHT22;40536;53.194;5.728;2023-05-31T13:58:34;20.10;99.90
54642;DHT22;40536;53.194;5.728;2023-05-31T14:01:02;20.10;99.90
54642;DHT22;40536;53.194;5.728;2023-05-31T14:03:29;20.10;99.90
54642;DHT22;40536;53.194;5.728;2023-05-31T14:05:56;20.00;99.90
54642;DHT22;40536;53.194;5.728;2023-05-31T14:08:22;19.90;99.90
54642;DHT22;40536;53.194;5.728;2023-05-31T14:10:48;19.80;99.90
54642;DHT22;40536;53.194;5.728;2023-05-31T14:13:14;19.90;99.90
54642;DHT22;40536;53.194;5.728;2023-05-31T14:15:39;19.80;99.90
54642;DHT22;40536;53.194;5.728;2023-05-31T14:18:06;19.80;99.90
54642;DHT22;40536;53.194;5.728;2023-05-31T14:20:32;19.90;99.90
54642;DHT22;40536;53.194;5.728;2023-05-31T14:22:57;19.90;99.90
54642;DHT22;40536;53.194;5.728;2023-05-31T14:25:23;19.70;99.90
54642;DHT22;40536;53.194;5.728;2023-05-31T14:27:49;19.60;99.90
54642;DHT22;40536;53.194;5.728;2023-05-31T14:30:14;19.50;99.90
54642;DHT22;40536;53.194;5.728;2023-05-31T14:32:40;19.40;99.90
54642;DHT22;40536;53.194;5.728;2023-05-31T14:35:07;19.30;99.90
54642;DHT22;40536;53.194;5.728;2023-05-31T14:37:35;19.30;99.90
54642;DHT22;40536;53.194;5.728;2023-05-31T14:40:00;19.30;99.90
54642;DHT22;40536;53.194;5.728;2023-05-31T14:42:26;19.30;99.90
54642;DHT22;40536;53.194;5.728;2023-05-31T14:44:51;19.10;99.90
54642;DHT22;40536;53.194;5.728;2023-05-31T14:47:17;19.00;99.90
54642;DHT22;40536;53.194;5.728;2023-05-31T14:49:43;18.80;99.90
54642;DHT22;40536;53.194;5.728;2023-05-31T14:52:08;18.70;99.90
54642;DHT22;40536;53.194;5.728;2023-05-31T14:54:34;18.60;99.90
54642;DHT22;40536;53.194;5.728;2023-05-31T14:57:00;18.50;99.90
54642;DHT22;40536;53.194;5.728;2023-05-31T14:59:28;18.50;99.90
54642;DHT22;40536;53.194;5.728;2023-05-31T15:01:55;18.40;99.90
54642;DHT22;40536;53.194;5.728;2023-05-31T15:04:23;18.40;99.90
54642;DHT22;40536;53.194;5.728;2023-05-31T15:06:49;18.30;99.90
54642;DHT22;40536;53.194;5.728;2023-05-31T15:09:15;18.20;99.90
54642;DHT22;40536;53.194;5.728;2023-05-31T15:11:41;17.90;99.90
54642;DHT22;40536;53.194;5.728;2023-05-31T15:14:06;18.00;99.90
54642;DHT22;40536;53.194;5.728;2023-05-31T15:16:32;18.20;99.90
54642;DHT22;40536;53.194;5.728;2023-05-31T15:18:59;18.30;99.90
54642;DHT22;40536;53.194;5.728;2023-05-31T15:21:25;18.10;99.90
54642;DHT22;40536;53.194;5.728;2023-05-31T15:23:51;18.10;99.90
54642;DHT22;40536;53.194;5.728;2023-05-31T15:26:17;18.00;99.90
54642;DHT22;40536;53.194;5.728;2023-05-31T15:28:43;17.80;99.90
54642;DHT22;40536;53.194;5.728;2023-05-31T15:31:09;17.80;99.90
54642;DHT22;40536;53.194;5.728;2023-05-31T15:33:38;17.80;99.90
54642;DHT22;40536;53.194;5.728;2023-05-31T15:36:04;17.90;99.90
54642;DHT22;40536;53.194;5.728;2023-05-31T15:38:30;17.80;99.90
54642;DHT22;40536;53.194;5.728;2023-05-31T15:40:56;17.80;99.90
54642;DHT22;40536;53.194;5.728;2023-05-31T15:43:23;17.60;99.90
54642;DHT22;40536;53.194;5.728;2023-05-31T15:45:50;17.40;99.90
54642;DHT22;40536;53.194;5.728;2023-05-31T15:48:16;17.50;99.90
54642;DHT22;40536;53.194;5.728;2023-05-31T15:50:41;17.50;99.90
54642;DHT22;40536;53.194;5.728;2023-05-31T15:53:07;17.50;99.90